Time;durP1;ratioP1;P1;durP2;ratioP2;P2;SDS_P1;SDS_P2;PMS_P1;PMS_P2;Temp;Humidity;BMP_temperature;BMP_pressure;BME280_temperature;BME280_humidity;BME280_pressure;Samples;Min_cycle;Max_cycle;Signal;HPM_P1;HPM_P2
2022/01/19 00:01:24;;;;;;;48.88;23.08;;;;;;;;;;5089100;28;20112;-88
2022/01/19 00:03:50;;;;;;;53.25;23.33;;;;;;;;;;5089740;28;20617;-90
2022/01/19 00:06:17;;;;;;;53.13;22.88;;;;;;;;;;5123002;27;20069;-90
2022/01/19 00:08:43;;;;;;;54.83;24.15;;;;;;;;;;5106573;28;20289;-88
2022/01/19 00:11:09;;;;;;;56.88;24.05;;;;;;;;;;5105545;28;20055;-89
2022/01/19 00:13:35;;;;;;;54.53;24.08;;;;;;;;;;5109073;27;20530;-88
2022/01/19 00:16:01;;;;;;;60.03;25.55;;;;;;;;;;5105645;28;20064;-88
2022/01/19 00:18:28;;;;;;;67.88;26.23;;;;;;;;;;5088719;28;20593;-88
2022/01/19 00:20:54;;;;;;;58.08;25.08;;;;;;;;;;5122591;27;20044;-89
2022/01/19 00:23:21;;;;;;;53.30;24.77;;;;;;;;;;5088994;28;20108;-88
2022/01/19 00:25:48;;;;;;;50.72;23.40;;;;;;;;;;5123263;27;20040;-88
2022/01/19 00:28:14;;;;;;;64.07;26.20;;;;;;;;;;5088907;28;20052;-91
2022/01/19 00:30:41;;;;;;;61.95;26.05;;;;;;;;;;5105724;28;20044;-89
2022/01/19 00:33:08;;;;;;;67.38;29.05;;;;;;;;;;5088923;28;20046;-90
2022/01/19 00:35:37;;;;;;;60.30;27.70;;;;;;;;;;5105589;28;20040;-90
2022/01/19 00:38:04;;;;;;;55.10;23.95;;;;;;;;;;5105869;28;20037;-90
2022/01/19 00:40:30;;;;;;;53.80;24.48;;;;;;;;;;5106223;28;20040;-89
2022/01/19 00:42:56;;;;;;;48.15;23.63;;;;;;;;;;5105875;28;20036;-88
2022/01/19 00:45:22;;;;;;;58.08;25.60;;;;;;;;;;5122661;27;20503;-88
2022/01/19 00:47:49;;;;;;;52.53;23.90;;;;;;;;;;5088218;28;20079;-89
2022/01/19 00:50:17;;;;;;;57.97;24.55;;;;;;;;;;5089183;28;20431;-88
2022/01/19 00:52:43;;;;;;;54.50;24.80;;;;;;;;;;5088559;28;20036;-87
2022/01/19 00:55:10;;;;;;;56.10;23.98;;;;;;;;;;5088176;28;20039;-88
2022/01/19 00:57:37;;;;;;;48.42;23.00;;;;;;;;;;5121907;27;20036;-88
2022/01/19 01:00:07;;;;;;;53.45;24.38;;;;;;;;;;5088535;28;20384;-89
2022/01/19 01:02:33;;;;;;;50.45;23.00;;;;;;;;;;5105633;28;20451;-90
2022/01/19 01:04:59;;;;;;;59.05;25.30;;;;;;;;;;5105695;28;20576;-87
2022/01/19 01:07:27;;;;;;;55.45;24.23;;;;;;;;;;5105907;28;20534;-87
2022/01/19 01:09:54;;;;;;;55.75;24.13;;;;;;;;;;5088062;28;20040;-88
2022/01/19 01:12:26;;;;;;;52.85;24.10;;;;;;;;;;5122351;28;20048;-89
2022/01/19 01:20:26;;;;;;;57.67;24.80;;;;;;;;;;5122085;28;20085;-88
2022/01/19 01:22:52;;;;;;;55.50;24.38;;;;;;;;;;5123466;28;20044;-89
2022/01/19 01:25:18;;;;;;;54.22;24.17;;;;;;;;;;5123660;28;20101;-89
2022/01/19 01:27:45;;;;;;;54.45;24.20;;;;;;;;;;5122477;28;20037;-88
2022/01/19 01:30:11;;;;;;;55.45;24.20;;;;;;;;;;5105237;28;20032;-89
2022/01/19 01:32:38;;;;;;;53.55;23.95;;;;;;;;;;5104913;28;20040;-88
2022/01/19 01:35:04;;;;;;;59.72;25.27;;;;;;;;;;5109286;28;20495;-89
2022/01/19 01:37:30;;;;;;;55.42;25.45;;;;;;;;;;5108720;28;20040;-88
2022/01/19 01:39:56;;;;;;;52.00;25.05;;;;;;;;;;5093256;28;20043;-89
2022/01/19 01:42:24;;;;;;;56.42;26.17;;;;;;;;;;5110980;28;20391;-88
2022/01/19 01:44:59;;;;;;;55.33;24.27;;;;;;;;;;5109936;28;20488;-89
2022/01/19 01:47:47;;;;;;;59.00;25.40;;;;;;;;;;5080692;28;20052;-88
2022/01/19 01:55:25;;;;;;;58.97;25.38;;;;;;;;;;5126925;27;20044;-88
2022/01/19 01:57:52;;;;;;;59.22;25.88;;;;;;;;;;5110113;28;20036;-88
2022/01/19 02:00:20;;;;;;;61.72;25.73;;;;;;;;;;5092202;28;20058;-89
2022/01/19 02:02:48;;;;;;;62.00;27.17;;;;;;;;;;5126359;27;20036;-88
2022/01/19 02:05:15;;;;;;;63.47;27.00;;;;;;;;;;5091488;28;20047;-89
2022/01/19 02:08:01;;;;;;;62.30;26.77;;;;;;;;;;5091000;28;20075;-89
2022/01/19 02:10:54;;;;;;;65.53;28.67;;;;;;;;;;5107957;28;20048;-89
2022/01/19 02:24:21;;;;;;;64.63;27.27;;;;;;;;;;5127060;27;20094;-89
2022/01/19 02:27:02;;;;;;;64.57;27.90;;;;;;;;;;5091745;28;20111;-91
2022/01/19 02:40:25;;;;;;;68.88;28.27;;;;;;;;;;5126091;27;20047;-89
2022/01/19 02:50:39;;;;;;;81.10;29.83;;;;;;;;;;5125566;27;20736;-89
2022/01/19 02:53:05;;;;;;;73.75;31.60;;;;;;;;;;5091958;28;20036;-89
2022/01/19 02:55:34;;;;;;;71.47;31.40;;;;;;;;;;5111113;28;20072;-89
2022/01/19 02:58:00;;;;;;;65.57;30.55;;;;;;;;;;5092172;28;20158;-90
2022/01/19 03:08:54;;;;;;;67.60;31.50;;;;;;;;;;5071735;28;20041;-89
2022/01/19 03:11:22;;;;;;;70.43;32.00;;;;;;;;;;5108465;28;20040;-88
2022/01/19 03:13:49;;;;;;;64.78;31.38;;;;;;;;;;5092050;28;20140;-89
2022/01/19 03:16:17;;;;;;;65.38;30.55;;;;;;;;;;5125982;27;20050;-88
2022/01/19 03:18:43;;;;;;;62.58;30.23;;;;;;;;;;5107129;28;20090;-89
2022/01/19 03:21:09;;;;;;;67.40;30.75;;;;;;;;;;5091571;28;20118;-89
2022/01/19 03:23:35;;;;;;;56.85;28.35;;;;;;;;;;5126993;27;20501;-92
2022/01/19 03:26:06;;;;;;;65.43;31.33;;;;;;;;;;5091104;28;20040;-88
2022/01/19 03:28:32;;;;;;;64.70;30.77;;;;;;;;;;5090725;28;20036;-88
2022/01/19 03:30:58;;;;;;;53.45;27.38;;;;;;;;;;5108826;28;20538;-90
2022/01/19 03:33:24;;;;;;;57.03;28.52;;;;;;;;;;5107254;28;20039;-88
2022/01/19 03:35:51;;;;;;;59.10;29.38;;;;;;;;;;5107141;28;20039;-89
2022/01/19 03:38:17;;;;;;;60.85;29.75;;;;;;;;;;5106912;28;20048;-89
2022/01/19 03:40:43;;;;;;;60.83;29.45;;;;;;;;;;5106850;28;20040;-89
2022/01/19 03:43:10;;;;;;;62.83;30.50;;;;;;;;;;5089964;28;20059;-89
2022/01/19 03:45:36;;;;;;;67.22;31.30;;;;;;;;;;5123754;27;20069;-88
2022/01/19 03:48:16;;;;;;;64.60;30.95;;;;;;;;;;5106909;28;20555;-88
2022/01/19 03:50:42;;;;;;;62.90;31.13;;;;;;;;;;5089548;28;20040;-89
2022/01/19 03:53:09;;;;;;;68.20;32.85;;;;;;;;;;5116793;27;20232;-89
2022/01/19 03:55:35;;;;;;;72.43;32.50;;;;;;;;;;5120609;27;20032;-88
2022/01/19 03:58:01;;;;;;;72.82;34.10;;;;;;;;;;5103698;28;20571;-89
2022/01/19 04:00:28;;;;;;;73.03;33.10;;;;;;;;;;5111613;27;20060;-89
2022/01/19 04:02:54;;;;;;;70.97;32.40;;;;;;;;;;5107758;28;20441;-90
2022/01/19 04:05:25;;;;;;;68.72;32.15;;;;;;;;;;5089164;28;20089;-88
2022/01/19 04:07:51;;;;;;;69.95;33.78;;;;;;;;;;5089956;28;20036;-89
2022/01/19 04:10:17;;;;;;;83.65;33.67;;;;;;;;;;5107308;28;20260;-88
2022/01/19 04:12:58;;;;;;;76.72;34.50;;;;;;;;;;5089232;28;20422;-89
2022/01/19 04:15:24;;;;;;;74.45;35.40;;;;;;;;;;5089671;28;20052;-92
2022/01/19 04:17:53;;;;;;;71.47;33.80;;;;;;;;;;5089966;28;20487;-91
2022/01/19 04:20:25;;;;;;;66.13;33.72;;;;;;;;;;5089841;28;20095;-89
2022/01/19 04:22:51;;;;;;;71.85;33.97;;;;;;;;;;5089827;28;20043;-89
2022/01/19 04:25:17;;;;;;;70.40;35.53;;;;;;;;;;5089707;28;20507;-90
2022/01/19 04:27:44;;;;;;;68.30;32.65;;;;;;;;;;5123485;27;20040;-90
2022/01/19 04:30:12;;;;;;;65.40;33.50;;;;;;;;;;5106970;28;20032;-89
2022/01/19 04:33:09;;;;;;;77.57;37.25;;;;;;;;;;5090148;28;20047;-88
2022/01/19 04:35:45;;;;;;;65.45;34.22;;;;;;;;;;5106236;28;20096;-89
2022/01/19 05:05:13;;;;;;;70.50;35.40;;;;;;;;;;5123056;27;20075;-89
2022/01/19 05:07:54;;;;;;;69.78;35.33;;;;;;;;;;5105526;28;20044;-89
2022/01/19 05:15:49;;;;;;;;;;;;;;;;;;5073082;28;20052;-88
2022/01/19 05:18:17;;;;;;;72.85;35.03;;;;;;;;;;5088866;28;20246;-88
2022/01/19 05:20:44;;;;;;;70.70;35.42;;;;;;;;;;5071307;28;20044;-88
2022/01/19 05:23:12;;;;;;;66.32;34.33;;;;;;;;;;5055097;28;20099;-88
2022/01/19 05:25:38;;;;;;;69.05;35.85;;;;;;;;;;5105975;28;20118;-88
2022/01/19 05:28:05;;;;;;;68.90;34.17;;;;;;;;;;5072678;28;20040;-88
2022/01/19 05:30:31;;;;;;;71.85;34.28;;;;;;;;;;5072071;28;20051;-88
2022/01/19 05:32:57;;;;;;;71.50;35.10;;;;;;;;;;5106072;28;20032;-89
2022/01/19 05:35:24;;;;;;;68.80;36.15;;;;;;;;;;5072687;28;20506;-88
2022/01/19 05:37:50;;;;;;;68.72;35.50;;;;;;;;;;5105883;28;20040;-88
2022/01/19 05:40:17;;;;;;;70.13;35.38;;;;;;;;;;5088758;28;20044;-88
2022/01/19 05:42:46;;;;;;;68.70;35.63;;;;;;;;;;5105175;28;20063;-89
2022/01/19 05:45:12;;;;;;;67.30;35.30;;;;;;;;;;5071774;28;20573;-89
2022/01/19 05:47:38;;;;;;;66.30;34.70;;;;;;;;;;5088692;28;20040;-89
2022/01/19 05:50:05;;;;;;;66.97;33.45;;;;;;;;;;5055690;28;20078;-87
2022/01/19 05:52:37;;;;;;;68.90;34.10;;;;;;;;;;5089023;28;20453;-88
2022/01/19 05:55:03;;;;;;;68.00;34.40;;;;;;;;;;5107105;28;20036;-89
2022/01/19 05:57:31;;;;;;;65.60;34.75;;;;;;;;;;5090072;28;20395;-88
2022/01/19 05:59:57;;;;;;;63.00;32.72;;;;;;;;;;5035914;28;20397;-88
2022/01/19 06:02:24;;;;;;;67.00;32.55;;;;;;;;;;5043195;28;20039;-89
2022/01/19 06:04:50;;;;;;;68.18;33.25;;;;;;;;;;5089161;28;20044;-88
2022/01/19 06:07:16;;;;;;;65.20;33.55;;;;;;;;;;5055399;28;20047;-87
2022/01/19 06:12:10;;;;;;;67.07;33.40;;;;;;;;;;5106596;28;20090;-88
2022/01/19 06:14:38;;;;;;;68.38;34.80;;;;;;;;;;5054504;28;20040;-88
2022/01/19 06:17:05;;;;;;;63.03;34.70;;;;;;;;;;5090384;28;20051;-88
2022/01/19 06:19:31;;;;;;;60.65;31.67;;;;;;;;;;5071520;28;20559;-88
2022/01/19 06:21:58;;;;;;;61.15;33.58;;;;;;;;;;5077270;28;20040;-89
2022/01/19 06:24:24;;;;;;;63.47;32.90;;;;;;;;;;5077577;28;20154;-90
2022/01/19 06:27:12;;;;;;;60.45;33.95;;;;;;;;;;5079264;28;20563;-90
2022/01/19 06:29:39;;;;;;;64.00;32.92;;;;;;;;;;5089560;28;20043;-88
2022/01/19 06:32:05;;;;;;;69.40;33.65;;;;;;;;;;5062492;28;20062;-89
2022/01/19 06:34:32;;;;;;;64.85;33.10;;;;;;;;;;5078152;28;20079;-90
2022/01/19 06:36:58;;;;;;;60.33;32.35;;;;;;;;;;5059483;28;20036;-90
2022/01/19 06:39:24;;;;;;;63.00;33.70;;;;;;;;;;5074043;28;20384;-89
2022/01/19 06:41:50;;;;;;;66.13;33.17;;;;;;;;;;5056853;28;20051;-89
2022/01/19 06:44:17;;;;;;;62.17;32.72;;;;;;;;;;5090310;28;20044;-91
2022/01/19 06:46:44;;;;;;;67.57;33.03;;;;;;;;;;5091054;28;20585;-91
2022/01/19 06:49:10;;;;;;;71.70;36.00;;;;;;;;;;5057989;28;20043;-90
2022/01/19 06:51:36;;;;;;;66.65;35.55;;;;;;;;;;5074211;28;20040;-89
2022/01/19 06:54:03;;;;;;;64.85;33.38;;;;;;;;;;5057370;28;20036;-89
2022/01/19 06:56:32;;;;;;;67.07;34.67;;;;;;;;;;5092136;28;20216;-89
2022/01/19 06:58:58;;;;;;;70.32;36.38;;;;;;;;;;5058050;28;20040;-90
2022/01/19 07:01:24;;;;;;;62.85;34.78;;;;;;;;;;5064096;28;20127;-90
2022/01/19 07:03:50;;;;;;;70.15;35.42;;;;;;;;;;5110355;28;20047;-93
2022/01/19 07:06:16;;;;;;;64.88;35.45;;;;;;;;;;5059778;28;20054;-90
2022/01/19 07:08:43;;;;;;;68.57;34.22;;;;;;;;;;5061027;28;20067;-90
2022/01/19 07:11:09;;;;;;;70.03;37.00;;;;;;;;;;5062213;28;20044;-91
2022/01/19 07:13:35;;;;;;;65.97;34.15;;;;;;;;;;5074936;28;20080;-91
2022/01/19 07:16:01;;;;;;;68.10;35.55;;;;;;;;;;5079674;28;20064;-91
2022/01/19 07:18:27;;;;;;;69.50;36.03;;;;;;;;;;5061604;28;20512;-91
2022/01/19 07:20:53;;;;;;;67.53;34.38;;;;;;;;;;5060461;28;20040;-91
2022/01/19 07:23:20;;;;;;;69.68;35.55;;;;;;;;;;5075587;28;20127;-91
2022/01/19 07:25:46;;;;;;;71.38;36.08;;;;;;;;;;5093903;28;20478;-91
2022/01/19 07:28:12;;;;;;;65.25;34.78;;;;;;;;;;5094761;28;20059;-90
2022/01/19 07:30:39;;;;;;;70.93;35.58;;;;;;;;;;5060617;28;20047;-91
2022/01/19 07:33:05;;;;;;;67.28;35.25;;;;;;;;;;5090872;28;20036;-91
2022/01/19 07:35:32;;;;;;;72.40;36.22;;;;;;;;;;5059834;28;20039;-89
2022/01/19 07:37:59;;;;;;;65.63;34.80;;;;;;;;;;5040307;28;20036;-91
2022/01/19 07:40:28;;;;;;;68.38;35.30;;;;;;;;;;5092730;28;20119;-92
2022/01/19 07:42:57;;;;;;;68.75;35.65;;;;;;;;;;5091588;28;20043;-90
2022/01/19 07:45:24;;;;;;;67.07;35.05;;;;;;;;;;5074700;28;20036;-90
2022/01/19 07:47:51;;;;;;;65.53;36.35;;;;;;;;;;5075317;28;20032;-92
2022/01/19 07:50:48;;;;;;;66.25;34.88;;;;;;;;;;5074146;28;20044;-91
2022/01/19 07:54:04;;;;;;;67.82;35.67;;;;;;;;;;5062919;28;20067;-90
2022/01/19 07:56:56;;;;;;;60.97;34.17;;;;;;;;;;5074371;28;20040;-90
2022/01/19 07:59:23;;;;;;;67.00;34.65;;;;;;;;;;5070005;28;20045;-89
2022/01/19 08:01:53;;;;;;;66.25;35.60;;;;;;;;;;5053041;28;20045;-89
2022/01/19 08:04:23;;;;;;;71.63;36.10;;;;;;;;;;5077138;28;20585;-90
2022/01/19 08:06:54;;;;;;;65.95;36.20;;;;;;;;;;5090232;28;20078;-88
2022/01/19 08:09:41;;;;;;;65.47;34.67;;;;;;;;;;5073434;28;20040;-91
2022/01/19 08:12:16;;;;;;;70.03;35.05;;;;;;;;;;5071868;28;20127;-90
2022/01/19 08:14:42;;;;;;;62.97;34.42;;;;;;;;;;5039825;28;20091;-91
2022/01/19 08:17:11;;;;;;;60.70;35.25;;;;;;;;;;5073091;28;20032;-89
2022/01/19 08:19:37;;;;;;;60.15;32.80;;;;;;;;;;5107771;27;20036;-88
2022/01/19 08:22:04;;;;;;;60.00;34.55;;;;;;;;;;5110600;27;20105;-89
2022/01/19 08:24:31;;;;;;;57.97;33.45;;;;;;;;;;5102320;28;20035;-91
2022/01/19 08:26:57;;;;;;;59.67;32.05;;;;;;;;;;5076953;28;20032;-89
2022/01/19 08:29:23;;;;;;;59.05;33.42;;;;;;;;;;5073782;28;20044;-89
2022/01/19 08:31:50;;;;;;;57.05;33.72;;;;;;;;;;5084493;28;20043;-88
2022/01/19 08:34:17;;;;;;;52.13;32.20;;;;;;;;;;5085728;28;20047;-88
2022/01/19 08:36:47;;;;;;;60.65;32.92;;;;;;;;;;5088790;28;20075;-89
2022/01/19 08:39:13;;;;;;;57.53;31.52;;;;;;;;;;5082730;28;20028;-89
2022/01/19 08:41:40;;;;;;;57.47;31.88;;;;;;;;;;5094705;28;20412;-91
2022/01/19 08:44:06;;;;;;;50.65;32.25;;;;;;;;;;5095980;28;20035;-90
2022/01/19 08:46:33;;;;;;;54.92;31.52;;;;;;;;;;5079530;28;20036;-89
2022/01/19 08:48:59;;;;;;;53.92;31.73;;;;;;;;;;5103125;28;20616;-88
2022/01/19 08:51:25;;;;;;;60.60;33.42;;;;;;;;;;5079727;28;20036;-89
2022/01/19 08:53:51;;;;;;;53.17;31.05;;;;;;;;;;5081076;28;20066;-89
2022/01/19 08:56:18;;;;;;;55.67;31.92;;;;;;;;;;5092637;28;20036;-88
2022/01/19 08:58:44;;;;;;;55.88;33.20;;;;;;;;;;5083138;28;20398;-91
2022/01/19 09:01:10;;;;;;;57.58;32.40;;;;;;;;;;5111565;28;20402;-88
2022/01/19 09:03:39;;;;;;;56.05;33.15;;;;;;;;;;5125960;27;20127;-91
2022/01/19 09:06:05;;;;;;;55.38;32.67;;;;;;;;;;5113380;28;20086;-90
2022/01/19 09:08:34;;;;;;;57.47;33.33;;;;;;;;;;5114927;28;20040;-91
2022/01/19 09:11:00;;;;;;;58.53;32.70;;;;;;;;;;5112986;28;20097;-90
2022/01/19 09:13:27;;;;;;;56.03;33.80;;;;;;;;;;5111612;28;20052;-89
2022/01/19 09:15:53;;;;;;;60.05;34.95;;;;;;;;;;5115617;28;20097;-88
2022/01/19 09:18:20;;;;;;;57.65;32.85;;;;;;;;;;5099964;28;20072;-88
2022/01/19 09:20:46;;;;;;;62.58;33.63;;;;;;;;;;5113375;28;20129;-89
2022/01/19 09:23:13;;;;;;;58.67;35.42;;;;;;;;;;5110317;28;20054;-89
2022/01/19 09:25:40;;;;;;;60.72;34.15;;;;;;;;;;5112670;28;20130;-89
2022/01/19 09:28:07;;;;;;;58.90;33.00;;;;;;;;;;5115783;28;20127;-88
2022/01/19 09:30:34;;;;;;;56.13;31.73;;;;;;;;;;5099731;28;20059;-89
2022/01/19 09:33:08;;;;;;;56.20;33.63;;;;;;;;;;5061400;28;20119;-88
2022/01/19 09:35:51;;;;;;;;;;;;;;;;;;5068790;28;20523;-88
2022/01/19 09:38:21;;;;;;;58.20;33.13;;;;;;;;;;5061557;28;20022;-91
2022/01/19 09:40:48;;;;;;;57.20;32.28;;;;;;;;;;5068488;28;20290;-92
2022/01/19 09:43:22;;;;;;;57.00;33.08;;;;;;;;;;5062499;28;20438;-89
2022/01/19 09:45:52;;;;;;;57.47;32.45;;;;;;;;;;5065901;28;20043;-90
2022/01/19 09:48:19;;;;;;;62.88;34.10;;;;;;;;;;5077635;28;20117;-90
2022/01/19 09:50:45;;;;;;;59.03;33.90;;;;;;;;;;5082503;28;20109;-89
2022/01/19 09:53:12;;;;;;;53.30;33.92;;;;;;;;;;5084779;28;20090;-91
2022/01/19 09:55:38;;;;;;;57.33;35.35;;;;;;;;;;5101088;28;20096;-93
2022/01/19 09:58:05;;;;;;;60.65;35.15;;;;;;;;;;5088319;28;20095;-89
2022/01/19 10:00:35;;;;;;;56.60;34.33;;;;;;;;;;5100665;28;20036;-91
2022/01/19 10:03:16;;;;;;;60.13;36.20;;;;;;;;;;5091462;28;20024;-90
2022/01/19 10:05:56;;;;;;;58.60;35.20;;;;;;;;;;5092740;28;20028;-91
2022/01/19 10:08:41;;;;;;;59.70;34.80;;;;;;;;;;5079169;28;20118;-91
2022/01/19 10:11:10;;;;;;;;;;;;;;;;;;5130181;27;20040;-89
2022/01/19 10:19:20;;;;;;;60.33;36.00;;;;;;;;;;5101437;28;20040;-92
2022/01/19 10:21:57;;;;;;;62.90;37.42;;;;;;;;;;5121888;27;20047;-89
2022/01/19 10:24:36;;;;;;;60.33;36.88;;;;;;;;;;5135365;27;20035;-89
2022/01/19 10:27:21;;;;;;;56.92;36.28;;;;;;;;;;5118946;27;20047;-88
2022/01/19 10:29:48;;;;;;;57.72;35.08;;;;;;;;;;5109279;27;20130;-90
2022/01/19 10:32:15;;;;;;;60.92;35.63;;;;;;;;;;5098226;28;20036;-91
2022/01/19 10:34:41;;;;;;;61.50;36.67;;;;;;;;;;5090413;28;20040;-90
2022/01/19 10:37:07;;;;;;;60.85;36.78;;;;;;;;;;5110706;27;20036;-88
2022/01/19 10:39:40;;;;;;;58.80;36.30;;;;;;;;;;5115837;28;20032;-89
2022/01/19 10:42:11;;;;;;;60.53;37.13;;;;;;;;;;5111944;28;20043;-88
2022/01/19 10:44:39;;;;;;;55.95;35.17;;;;;;;;;;5081602;28;20044;-88
2022/01/19 10:47:05;;;;;;;59.95;36.70;;;;;;;;;;5117347;27;20046;-88
2022/01/19 10:49:50;;;;;;;57.03;36.53;;;;;;;;;;5080052;28;20046;-90
2022/01/19 10:52:26;;;;;;;59.38;36.13;;;;;;;;;;5132204;27;20047;-88
2022/01/19 10:54:52;;;;;;;61.38;37.53;;;;;;;;;;5133765;27;20502;-91
2022/01/19 10:57:19;;;;;;;54.63;36.80;;;;;;;;;;5084434;28;20035;-90
2022/01/19 10:59:45;;;;;;;65.18;39.90;;;;;;;;;;5077330;28;20036;-89
2022/01/19 11:02:12;;;;;;;57.95;37.97;;;;;;;;;;5130736;27;20046;-90
2022/01/19 11:04:39;;;;;;;59.13;38.67;;;;;;;;;;5061551;28;20066;-89
2022/01/19 11:07:11;;;;;;;57.85;37.80;;;;;;;;;;5083160;28;20097;-89
2022/01/19 11:10:00;;;;;;;60.85;38.47;;;;;;;;;;5085398;28;20046;-91
2022/01/19 11:12:30;;;;;;;66.13;40.42;;;;;;;;;;5078827;28;20605;-88
2022/01/19 11:14:57;;;;;;;58.80;38.33;;;;;;;;;;5081530;28;20127;-90
2022/01/19 11:17:23;;;;;;;65.30;40.65;;;;;;;;;;5097988;28;20040;-90
2022/01/19 11:19:49;;;;;;;65.40;40.25;;;;;;;;;;5100480;28;20482;-91
2022/01/19 11:22:19;;;;;;;62.28;39.95;;;;;;;;;;5117760;27;20044;-90
2022/01/19 11:24:49;;;;;;;64.78;40.17;;;;;;;;;;5112268;28;20040;-90
2022/01/19 11:27:16;;;;;;;64.60;39.08;;;;;;;;;;5103921;28;20058;-89
2022/01/19 11:29:42;;;;;;;65.97;39.80;;;;;;;;;;5093586;28;20040;-90
2022/01/19 11:32:17;;;;;;;73.65;42.33;;;;;;;;;;5127903;27;20059;-89
2022/01/19 11:34:49;;;;;;;65.32;40.30;;;;;;;;;;5082555;28;20035;-89
2022/01/19 11:37:17;;;;;;;67.90;41.60;;;;;;;;;;5083783;28;20044;-88
2022/01/19 11:39:59;;;;;;;69.32;40.97;;;;;;;;;;5095779;28;20032;-89
2022/01/19 11:42:26;;;;;;;66.72;41.60;;;;;;;;;;5127271;27;20494;-89
2022/01/19 11:44:52;;;;;;;67.55;42.17;;;;;;;;;;5066045;28;20412;-89
2022/01/19 11:47:24;;;;;;;76.97;43.65;;;;;;;;;;5137925;27;20039;-90
2022/01/19 11:49:50;;;;;;;68.38;42.72;;;;;;;;;;5111712;27;20040;-87
2022/01/19 11:52:19;;;;;;;69.72;44.10;;;;;;;;;;5117381;27;20040;-90
2022/01/19 11:54:46;;;;;;;70.80;44.45;;;;;;;;;;5101544;28;20039;-89
2022/01/19 11:57:13;;;;;;;71.55;43.15;;;;;;;;;;5101871;28;20040;-89
2022/01/19 11:59:50;;;;;;;70.45;45.05;;;;;;;;;;5110228;28;20047;-89
2022/01/19 12:02:26;;;;;;;76.07;44.92;;;;;;;;;;5112310;28;20136;-89
2022/01/19 12:04:57;;;;;;;75.75;45.58;;;;;;;;;;5109563;28;20102;-90
2022/01/19 12:07:36;;;;;;;75.10;43.92;;;;;;;;;;5111048;28;20491;-90
2022/01/19 12:10:11;;;;;;;77.25;44.90;;;;;;;;;;5113496;28;20044;-91
2022/01/19 12:12:45;;;;;;;73.75;44.95;;;;;;;;;;5112265;28;20032;-92
2022/01/19 12:15:36;;;;;;;72.75;43.80;;;;;;;;;;5114663;28;20504;-89
2022/01/19 12:18:09;;;;;;;77.35;43.13;;;;;;;;;;5112302;28;20243;-90
2022/01/19 12:20:56;;;;;;;74.35;44.95;;;;;;;;;;5111966;28;20036;-88
2022/01/19 12:23:25;;;;;;;84.70;45.08;;;;;;;;;;5094451;28;20039;-90
2022/01/19 12:25:59;;;;;;;78.90;44.55;;;;;;;;;;5066223;28;20472;-90
2022/01/19 12:28:45;;;;;;;76.13;43.78;;;;;;;;;;5089446;28;20037;-90
2022/01/19 12:31:26;;;;;;;80.95;46.00;;;;;;;;;;5079827;28;20499;-90
2022/01/19 12:34:06;;;;;;;75.68;44.80;;;;;;;;;;5097945;28;20028;-89
2022/01/19 12:36:42;;;;;;;81.65;44.80;;;;;;;;;;5123981;27;20042;-89
2022/01/19 12:39:26;;;;;;;79.35;44.15;;;;;;;;;;5077714;28;20138;-88
2022/01/19 12:42:05;;;;;;;;;;;;;;;;;;5128624;27;20052;-89
2022/01/19 12:44:49;;;;;;;70.35;41.08;;;;;;;;;;5092437;28;19916;-89
2022/01/19 12:47:25;;;;;;;72.18;42.50;;;;;;;;;;5121810;27;20142;-91
2022/01/19 12:49:51;;;;;;;78.57;42.80;;;;;;;;;;5128357;27;20047;-87
2022/01/19 12:52:18;;;;;;;77.80;41.70;;;;;;;;;;5106095;28;20373;-89
2022/01/19 12:54:44;;;;;;;68.85;38.80;;;;;;;;;;5080437;28;20501;-90
2022/01/19 12:57:15;;;;;;;67.32;39.08;;;;;;;;;;5111364;28;20482;-90
2022/01/19 12:59:42;;;;;;;70.28;38.95;;;;;;;;;;5112460;28;20035;-88
2022/01/19 13:02:08;;;;;;;72.22;41.17;;;;;;;;;;5097185;28;20051;-90
2022/01/19 13:04:36;;;;;;;68.45;38.90;;;;;;;;;;5090603;28;20043;-91
2022/01/19 13:07:34;;;;;;;68.00;39.60;;;;;;;;;;5068938;28;20519;-90
2022/01/19 13:10:05;;;;;;;74.78;38.90;;;;;;;;;;5042459;28;20165;-88
2022/01/19 13:12:39;;;;;;;74.80;39.88;;;;;;;;;;5108511;28;20077;-89
2022/01/19 13:15:05;;;;;;;69.85;39.47;;;;;;;;;;5058738;28;20048;-89
2022/01/19 13:17:42;;;;;;;65.93;40.80;;;;;;;;;;5060836;28;20035;-88
2022/01/19 13:20:13;;;;;;;69.90;40.20;;;;;;;;;;5059330;28;20068;-89
2022/01/19 13:22:44;;;;;;;63.13;36.83;;;;;;;;;;5073029;28;20046;-90
2022/01/19 13:25:17;;;;;;;70.72;37.78;;;;;;;;;;5092222;28;20044;-87
2022/01/19 13:27:45;;;;;;;67.07;38.13;;;;;;;;;;5058255;28;20064;-92
2022/01/19 13:30:12;;;;;;;68.68;38.05;;;;;;;;;;5063128;28;20123;-89
2022/01/19 13:32:39;;;;;;;62.50;36.13;;;;;;;;;;5097481;28;20035;-89
2022/01/19 13:35:06;;;;;;;61.78;36.95;;;;;;;;;;5097395;28;20435;-87
2022/01/19 13:37:48;;;;;;;63.88;36.55;;;;;;;;;;5100450;28;20050;-91
2022/01/19 13:40:16;;;;;;;65.10;36.90;;;;;;;;;;5060803;28;20492;-90
2022/01/19 13:42:47;;;;;;;65.82;37.13;;;;;;;;;;5095215;28;20380;-92
2022/01/19 13:45:25;;;;;;;60.78;34.90;;;;;;;;;;5069581;28;20099;-90
2022/01/19 13:50:45;;;;;;;65.60;36.55;;;;;;;;;;5114288;28;20043;-89
2022/01/19 13:53:12;;;;;;;57.58;34.30;;;;;;;;;;5082230;28;20560;-90
2022/01/19 13:55:39;;;;;;;61.53;35.75;;;;;;;;;;5084583;28;20117;-90
2022/01/19 13:58:05;;;;;;;60.70;35.30;;;;;;;;;;5079600;28;20036;-91
2022/01/19 14:00:31;;;;;;;58.17;33.42;;;;;;;;;;5097255;28;20043;-93
2022/01/19 14:03:01;;;;;;;60.30;34.13;;;;;;;;;;5097101;28;20047;-89
2022/01/19 14:05:37;;;;;;;56.08;33.30;;;;;;;;;;5080015;28;20054;-89
2022/01/19 14:08:03;;;;;;;57.00;33.75;;;;;;;;;;5063201;28;20072;-89
2022/01/19 14:10:48;;;;;;;55.65;32.65;;;;;;;;;;5062275;28;20043;-90
2022/01/19 14:13:34;;;;;;;59.53;33.88;;;;;;;;;;5061870;28;20052;-88
2022/01/19 14:16:21;;;;;;;62.58;35.35;;;;;;;;;;5062706;28;20040;-89
2022/01/19 14:19:05;;;;;;;60.60;36.38;;;;;;;;;;5062125;28;20062;-90
2022/01/19 14:21:32;;;;;;;62.70;36.88;;;;;;;;;;5062417;28;20528;-92
2022/01/19 14:24:01;;;;;;;65.35;36.13;;;;;;;;;;5127745;27;20043;-90
2022/01/19 14:26:28;;;;;;;66.20;37.92;;;;;;;;;;5121746;27;20046;-92
2022/01/19 14:29:11;;;;;;;67.22;37.35;;;;;;;;;;5068356;28;20047;-90
2022/01/19 14:31:49;;;;;;;65.30;36.45;;;;;;;;;;5073872;28;20495;-92
2022/01/19 14:34:16;;;;;;;74.35;38.22;;;;;;;;;;5080705;28;20036;-92
2022/01/19 14:36:42;;;;;;;68.65;37.00;;;;;;;;;;5063090;28;20036;-92
2022/01/19 14:39:09;;;;;;;68.75;34.70;;;;;;;;;;5062931;28;20039;-91
2022/01/19 14:41:37;;;;;;;71.03;35.25;;;;;;;;;;5062414;28;20047;-92
2022/01/19 14:44:20;;;;;;;64.97;36.40;;;;;;;;;;5062819;28;20062;-91
2022/01/19 14:47:14;;;;;;;65.00;35.53;;;;;;;;;;5079695;28;20123;-90
2022/01/19 14:49:40;;;;;;;67.97;37.30;;;;;;;;;;5120080;27;20039;-89
2022/01/19 14:52:06;;;;;;;67.95;36.13;;;;;;;;;;5083653;28;20039;-92
2022/01/19 14:54:32;;;;;;;65.15;35.58;;;;;;;;;;5060318;28;20036;-92
2022/01/19 14:56:59;;;;;;;65.65;35.97;;;;;;;;;;5060390;28;20685;-88
2022/01/19 14:59:25;;;;;;;65.00;36.53;;;;;;;;;;5067500;28;20035;-90
2022/01/19 15:01:57;;;;;;;63.20;37.53;;;;;;;;;;5081303;28;20517;-92
2022/01/19 15:04:23;;;;;;;69.40;38.03;;;;;;;;;;5062568;28;20040;-92
2022/01/19 15:06:50;;;;;;;68.97;36.65;;;;;;;;;;5063562;28;20092;-91
2022/01/19 15:09:16;;;;;;;61.65;35.80;;;;;;;;;;5095292;28;20109;-92
2022/01/19 15:11:43;;;;;;;70.03;37.78;;;;;;;;;;5068085;28;20065;-93
2022/01/19 15:14:10;;;;;;;64.93;36.53;;;;;;;;;;5059984;28;20055;-91
2022/01/19 15:16:36;;;;;;;70.32;37.05;;;;;;;;;;5065362;28;20074;-90
2022/01/19 15:19:03;;;;;;;68.30;36.10;;;;;;;;;;5067846;28;20097;-88
2022/01/19 15:21:29;;;;;;;64.53;35.45;;;;;;;;;;5094389;28;20039;-90
2022/01/19 15:23:59;;;;;;;62.40;33.35;;;;;;;;;;5081740;28;20042;-91
2022/01/19 15:26:25;;;;;;;71.68;37.05;;;;;;;;;;5074697;28;20044;-92
2022/01/19 15:28:51;;;;;;;68.95;38.30;;;;;;;;;;5090749;28;20039;-91
2022/01/19 15:31:18;;;;;;;62.97;36.47;;;;;;;;;;5069897;28;20047;-92
2022/01/19 15:33:44;;;;;;;69.18;35.28;;;;;;;;;;5070561;28;20445;-91
2022/01/19 15:36:11;;;;;;;67.35;34.97;;;;;;;;;;5068559;28;20035;-93
2022/01/19 15:38:42;;;;;;;63.28;33.10;;;;;;;;;;5091746;28;20432;-93
2022/01/19 15:41:08;;;;;;;60.63;31.67;;;;;;;;;;5064423;28;20105;-93
2022/01/19 15:43:37;;;;;;;63.95;31.98;;;;;;;;;;5055880;28;20040;-93
2022/01/19 15:46:03;;;;;;;57.13;32.28;;;;;;;;;;5113660;27;20047;-88
2022/01/19 15:48:30;;;;;;;58.65;30.88;;;;;;;;;;5063706;28;20035;-90
2022/01/19 15:50:58;;;;;;;57.38;30.33;;;;;;;;;;5064056;28;20043;-91
2022/01/19 15:53:24;;;;;;;61.83;30.02;;;;;;;;;;5056321;28;20069;-88
2022/01/19 15:55:52;;;;;;;56.53;28.33;;;;;;;;;;5052123;28;20101;-88
2022/01/19 15:58:19;;;;;;;56.03;28.08;;;;;;;;;;5118379;27;20521;-89
2022/01/19 16:00:46;;;;;;;53.97;28.92;;;;;;;;;;5067354;28;20032;-88
2022/01/19 16:03:12;;;;;;;55.70;28.98;;;;;;;;;;5071204;28;20047;-90
2022/01/19 16:05:39;;;;;;;60.30;29.80;;;;;;;;;;5058324;28;20040;-90